createdAt,value
2018-08-17T00:00:49.409Z,15.37
2018-08-17T00:03:19.023Z,17.40
2018-08-17T00:05:48.281Z,15.37
2018-08-17T00:08:17.456Z,15.80
2018-08-17T00:10:46.893Z,16.07
2018-08-17T00:13:16.115Z,15.33
2018-08-17T00:15:45.255Z,13.67
2018-08-17T00:18:14.592Z,16.03
2018-08-17T00:20:44.179Z,13.97
2018-08-17T00:23:13.206Z,14.87
2018-08-17T00:25:43.245Z,15.30
2018-08-17T00:28:12.573Z,15.73
2018-08-17T00:30:41.741Z,13.20
2018-08-17T00:33:10.994Z,15.00
2018-08-17T00:35:40.111Z,15.50
2018-08-17T00:38:09.617Z,14.47
2018-08-17T00:40:38.899Z,13.90
2018-08-17T00:43:08.156Z,13.83
2018-08-17T00:45:37.538Z,15.07
2018-08-17T00:48:06.982Z,15.67
2018-08-17T00:50:36.444Z,14.50
2018-08-17T00:53:05.659Z,15.63
2018-08-17T00:55:34.926Z,13.90
2018-08-17T00:58:04.124Z,16.03
2018-08-17T01:00:33.460Z,16.03
2018-08-17T01:03:02.676Z,15.87
2018-08-17T01:05:32.233Z,16.77
2018-08-17T01:08:01.531Z,18.23
2018-08-17T01:10:30.551Z,19.60
2018-08-17T01:12:59.812Z,18.57
2018-08-17T01:15:29.435Z,15.50
2018-08-17T01:17:58.792Z,17.83
2018-08-17T01:20:27.914Z,16.07
2018-08-17T01:22:57.161Z,16.13
2018-08-17T01:25:26.347Z,18.50
2018-08-17T01:27:55.552Z,13.17
2018-08-17T01:30:24.807Z,15.23
2018-08-17T01:32:54.235Z,14.00
2018-08-17T01:35:23.444Z,13.30
2018-08-17T01:37:52.577Z,14.30
2018-08-17T01:40:21.875Z,13.47
2018-08-17T01:42:50.975Z,12.50
2018-08-17T01:45:20.431Z,14.10
2018-08-17T01:47:49.972Z,15.57
2018-08-17T01:50:19.326Z,14.73
2018-08-17T01:52:48.581Z,38.50
2018-08-17T01:55:18.127Z,23.63
2018-08-17T01:57:47.199Z,26.97
2018-08-17T02:00:16.435Z,45.00
2018-08-17T02:02:45.784Z,66.13
2018-08-17T02:05:14.910Z,31.37
2018-08-17T02:07:43.987Z,40.40
2018-08-17T02:10:13.464Z,19.40
2018-08-17T02:12:42.616Z,23.30
2018-08-17T02:15:11.869Z,81.87
2018-08-17T02:17:41.564Z,55.57
2018-08-17T02:20:10.753Z,29.00
2018-08-17T02:22:39.920Z,66.03
2018-08-17T02:25:09.421Z,58.73
2018-08-17T02:27:38.567Z,120.57
2018-08-17T02:30:07.963Z,42.27
2018-08-17T02:32:37.624Z,43.77
2018-08-17T02:35:06.718Z,70.20
2018-08-17T02:37:35.768Z,57.57
2018-08-17T02:40:05.407Z,48.57
2018-08-17T02:42:34.754Z,38.13
2018-08-17T02:45:03.972Z,39.27
2018-08-17T02:47:33.363Z,57.10
2018-08-17T02:50:02.849Z,63.70
2018-08-17T02:52:31.989Z,45.53
2018-08-17T02:55:01.261Z,36.73
2018-08-17T02:57:30.402Z,52.23
2018-08-17T02:59:59.615Z,36.73
2018-08-17T03:02:28.943Z,37.40
2018-08-17T03:04:58.272Z,39.13
2018-08-17T03:07:27.668Z,33.93
2018-08-17T03:09:57.021Z,28.93
2018-08-17T03:12:26.159Z,27.97
2018-08-17T03:14:55.431Z,21.17
2018-08-17T03:17:24.599Z,35.93
2018-08-17T03:19:53.880Z,46.50
2018-08-17T03:22:23.007Z,38.77
2018-08-17T03:24:52.512Z,32.70
2018-08-17T03:27:21.711Z,26.63
2018-08-17T03:29:50.959Z,22.43
2018-08-17T03:32:20.115Z,20.60
2018-08-17T03:34:49.463Z,20.20
2018-08-17T03:37:18.813Z,18.97
2018-08-17T03:39:49.443Z,20.40
2018-08-17T03:42:18.468Z,22.90
2018-08-17T03:44:47.640Z,26.90
2018-08-17T03:47:16.796Z,36.93
2018-08-17T03:49:46.024Z,34.37
2018-08-17T03:52:15.316Z,32.60
2018-08-17T03:54:44.688Z,42.73
2018-08-17T03:57:13.704Z,22.57
2018-08-17T03:59:43.060Z,26.50
2018-08-17T04:02:12.615Z,31.40
2018-08-17T04:04:41.723Z,26.80
2018-08-17T04:07:10.920Z,29.07
2018-08-17T04:09:39.964Z,37.33
2018-08-17T04:12:09.092Z,53.10
2018-08-17T04:14:38.336Z,47.03
2018-08-17T04:17:07.584Z,62.90
2018-08-17T04:19:37.979Z,59.50
2018-08-17T04:22:07.718Z,121.20
2018-08-17T04:24:37.008Z,50.53
2018-08-17T04:27:06.315Z,81.03
2018-08-17T04:29:35.543Z,53.90
2018-08-17T04:32:04.927Z,57.50
2018-08-17T04:34:34.070Z,46.57
2018-08-17T04:37:03.403Z,55.93
2018-08-17T04:39:32.671Z,64.33
2018-08-17T04:42:01.962Z,49.47
2018-08-17T04:44:31.252Z,41.87
2018-08-17T04:47:00.711Z,36.27
2018-08-17T04:49:29.857Z,42.23
2018-08-17T04:51:59.139Z,28.83
2018-08-17T04:54:28.295Z,31.40
2018-08-17T04:56:57.578Z,23.70
2018-08-17T04:59:26.953Z,25.03
2018-08-17T05:01:55.952Z,20.97
2018-08-17T05:04:25.196Z,24.17
2018-08-17T05:06:54.647Z,19.53
2018-08-17T05:09:23.789Z,20.00
2018-08-17T05:11:52.960Z,19.20
2018-08-17T05:14:22.299Z,18.47
2018-08-17T05:16:51.416Z,19.30
2018-08-17T05:19:20.590Z,16.17
2018-08-17T05:21:49.952Z,16.27
2018-08-17T05:24:19.285Z,17.63
2018-08-17T05:26:48.336Z,18.00
2018-08-17T05:29:17.612Z,16.53
2018-08-17T05:31:46.577Z,14.20
2018-08-17T05:34:15.765Z,14.63
2018-08-17T05:36:44.945Z,15.17
2018-08-17T05:39:14.192Z,15.20
2018-08-17T05:41:43.406Z,14.53
2018-08-17T05:44:12.653Z,14.00
2018-08-17T05:46:42.092Z,13.77
2018-08-17T05:49:11.207Z,13.80
2018-08-17T05:51:40.622Z,13.07
2018-08-17T05:54:09.665Z,14.07
2018-08-17T05:56:39.062Z,13.80
2018-08-17T05:59:09.008Z,13.50
2018-08-17T06:01:38.468Z,13.00
2018-08-17T06:04:08.107Z,13.13
2018-08-17T06:06:37.509Z,12.40
2018-08-17T06:09:08.179Z,12.37
2018-08-17T06:11:38.036Z,8.57
2018-08-17T06:14:07.285Z,7.80
2018-08-17T06:16:36.512Z,7.73
2018-08-17T06:19:05.638Z,6.80
2018-08-17T06:21:34.586Z,6.27
2018-08-17T06:24:03.664Z,6.63
2018-08-17T06:26:33.154Z,7.50
2018-08-17T06:29:02.100Z,7.27
2018-08-17T06:31:31.336Z,7.80
2018-08-17T06:34:00.757Z,8.97
2018-08-17T06:36:29.929Z,8.70
2018-08-17T06:38:59.176Z,8.37
2018-08-17T06:41:28.419Z,8.77
2018-08-17T06:43:57.933Z,7.90
2018-08-17T06:46:27.193Z,8.20
2018-08-17T06:48:56.301Z,7.57
2018-08-17T06:51:25.315Z,8.23
2018-08-17T06:53:54.432Z,7.77
2018-08-17T06:56:23.687Z,8.57
2018-08-17T06:58:52.820Z,7.20
2018-08-17T07:01:22.353Z,6.60
2018-08-17T07:03:51.735Z,6.37
2018-08-17T07:06:21.121Z,4.70
2018-08-17T07:08:50.286Z,5.00
2018-08-17T07:11:19.363Z,5.00
2018-08-17T07:13:48.497Z,5.03
2018-08-17T07:16:17.662Z,4.47
2018-08-17T07:18:46.863Z,4.33
2018-08-17T07:21:16.044Z,5.50
2018-08-17T07:23:45.335Z,4.72
2018-08-17T07:26:14.721Z,4.83
2018-08-17T07:28:44.001Z,5.03
2018-08-17T07:31:13.272Z,4.47
2018-08-17T07:33:42.572Z,4.50
2018-08-17T07:36:11.696Z,4.72
2018-08-17T07:38:41.431Z,4.72
2018-08-17T07:41:10.801Z,4.42
2018-08-17T07:43:39.931Z,7.12
2018-08-17T07:46:09.344Z,4.33
2018-08-17T07:48:38.487Z,3.50
2018-08-17T07:51:07.623Z,6.75
2018-08-17T07:53:36.793Z,5.05
2018-08-17T07:56:06.248Z,4.60
2018-08-17T07:58:35.733Z,3.30
2018-08-17T08:01:04.973Z,3.70
2018-08-17T08:03:34.387Z,2.65
2018-08-17T08:06:03.507Z,2.87
2018-08-17T08:08:32.737Z,5.17
2018-08-17T08:11:01.980Z,4.62
2018-08-17T08:13:31.389Z,4.67
2018-08-17T08:16:01.113Z,5.42
2018-08-17T08:18:30.373Z,5.42
2018-08-17T08:20:59.512Z,4.33
2018-08-17T08:23:29.990Z,4.62
2018-08-17T08:25:59.453Z,4.00
2018-08-17T08:28:28.637Z,5.35
2018-08-17T08:31:03.155Z,3.87
2018-08-17T08:33:35.222Z,3.33
2018-08-17T08:36:04.346Z,3.45
2018-08-17T08:38:33.592Z,3.80
2018-08-17T08:41:03.357Z,3.30
2018-08-17T08:43:33.091Z,3.87
2018-08-17T08:46:06.912Z,3.08
2018-08-17T08:48:36.631Z,3.70
2018-08-17T08:51:06.053Z,2.60
2018-08-17T08:53:35.275Z,2.67
2018-08-17T08:56:04.952Z,3.25
2018-08-17T08:58:34.238Z,2.90
2018-08-17T09:01:03.666Z,2.30
2018-08-17T09:03:33.427Z,2.85
2018-08-17T09:06:02.637Z,2.90
2018-08-17T09:08:31.927Z,4.47
2018-08-17T09:11:01.071Z,3.15
2018-08-17T09:13:30.310Z,2.77
2018-08-17T09:16:00.061Z,3.30
2018-08-17T09:18:29.304Z,4.45
2018-08-17T09:20:58.860Z,2.83
2018-08-17T09:23:28.026Z,3.12
2018-08-17T09:25:57.235Z,4.72
2018-08-17T09:28:26.647Z,7.62
2018-08-17T09:30:57.776Z,2.83
2018-08-17T09:33:27.407Z,3.98
2018-08-17T09:35:57.082Z,6.50
2018-08-17T09:38:26.363Z,3.55
2018-08-17T09:40:55.702Z,87.70
2018-08-17T09:43:25.346Z,7.30
2018-08-17T09:45:54.692Z,5.25
2018-08-17T09:48:23.824Z,4.42
2018-08-17T09:50:54.278Z,3.62
2018-08-17T09:53:23.809Z,2.98
2018-08-17T09:55:52.912Z,3.67
2018-08-17T09:58:22.454Z,3.92
2018-08-17T10:00:56.895Z,3.92
2018-08-17T10:03:31.341Z,3.22
2018-08-17T10:06:05.690Z,3.42
2018-08-17T10:10:42.813Z,4.55
2018-08-17T10:13:12.187Z,3.30
2018-08-17T10:15:43.546Z,2.85
2018-08-17T10:18:12.745Z,2.70
2018-08-17T10:20:42.427Z,3.80
2018-08-17T10:23:17.103Z,6.62
2018-08-17T10:25:46.055Z,4.65
2018-08-17T10:28:15.466Z,3.10
2018-08-17T10:30:44.452Z,3.75
2018-08-17T10:33:15.330Z,2.40
2018-08-17T10:35:44.445Z,2.77
2018-08-17T10:38:13.775Z,2.75
2018-08-17T10:40:43.129Z,14.15
2018-08-17T10:43:12.527Z,4.22
2018-08-17T10:45:41.968Z,6.53
2018-08-17T10:48:11.120Z,4.47
2018-08-17T10:50:40.432Z,5.28
2018-08-17T10:53:11.314Z,3.40
2018-08-17T10:55:45.969Z,4.08
2018-08-17T10:58:16.285Z,3.98
2018-08-17T11:00:45.553Z,4.30
2018-08-17T11:03:14.865Z,6.83
2018-08-17T11:05:44.115Z,3.37
2018-08-17T11:08:13.312Z,3.58
2018-08-17T11:10:43.373Z,3.87
2018-08-17T11:13:12.483Z,3.20
2018-08-17T11:15:41.827Z,3.55
2018-08-17T11:18:11.285Z,4.92
2018-08-17T11:20:41.252Z,6.47
2018-08-17T11:23:10.448Z,4.58
2018-08-17T11:25:39.836Z,5.28
2018-08-17T11:28:11.099Z,4.90
2018-08-17T11:30:40.484Z,4.03
2018-08-17T11:33:10.055Z,5.05
2018-08-17T11:35:39.161Z,4.05
2018-08-17T11:38:08.507Z,4.05
2018-08-17T11:40:37.870Z,6.60
2018-08-17T11:43:06.935Z,4.62
2018-08-17T11:45:36.618Z,4.42
2018-08-17T11:48:06.048Z,4.55
2018-08-17T11:50:37.394Z,3.98
2018-08-17T11:53:07.632Z,4.45
2018-08-17T11:55:37.988Z,6.62
2018-08-17T11:58:07.388Z,4.53
2018-08-17T12:00:37.478Z,4.67
2018-08-17T12:03:08.431Z,6.80
2018-08-17T12:05:37.911Z,4.30
2018-08-17T12:08:07.375Z,4.65
2018-08-17T12:10:37.019Z,5.35
2018-08-17T12:13:13.997Z,5.03
2018-08-17T12:15:48.985Z,5.90
2018-08-17T12:18:23.053Z,4.37
2018-08-17T12:20:52.610Z,4.05
2018-08-17T12:23:21.986Z,4.37
2018-08-17T12:25:58.550Z,4.40
2018-08-17T12:28:29.395Z,6.50
2018-08-17T12:30:59.065Z,3.90
2018-08-17T12:33:28.216Z,4.55
2018-08-17T12:35:57.932Z,4.03
2018-08-17T12:38:27.674Z,5.62
2018-08-17T12:40:58.116Z,4.40
2018-08-17T12:43:29.233Z,4.20
2018-08-17T12:45:59.889Z,4.10
2018-08-17T12:48:30.050Z,4.40
2018-08-17T12:51:06.302Z,4.15
2018-08-17T12:53:37.902Z,4.20
2018-08-17T12:56:08.246Z,6.62
2018-08-17T12:58:37.561Z,6.75
2018-08-17T13:01:06.802Z,4.60
2018-08-17T13:03:35.896Z,7.62
2018-08-17T13:06:05.753Z,5.47
2018-08-17T13:08:35.378Z,5.87
2018-08-17T13:11:04.581Z,5.60
2018-08-17T13:13:34.076Z,4.97
2018-08-17T13:16:07.043Z,4.45
2018-08-17T13:18:37.644Z,7.92
2018-08-17T13:21:07.034Z,5.72
2018-08-17T13:23:36.512Z,5.40
2018-08-17T13:26:06.076Z,7.78
2018-08-17T13:28:35.681Z,5.53
2018-08-17T13:31:04.912Z,5.30
2018-08-17T13:33:34.974Z,4.97
2018-08-17T13:36:04.347Z,4.78
2018-08-17T13:38:33.590Z,4.67
2018-08-17T13:41:03.518Z,5.35
2018-08-17T13:43:32.950Z,5.17
2018-08-17T13:46:02.200Z,5.60
2018-08-17T13:48:31.501Z,5.15
2018-08-17T13:51:00.812Z,5.42
2018-08-17T13:53:30.570Z,5.67
2018-08-17T13:56:00.302Z,7.17
2018-08-17T13:58:29.860Z,7.90
2018-08-17T14:00:59.023Z,7.97
2018-08-17T14:03:28.484Z,4.92
2018-08-17T14:05:57.671Z,8.03
2018-08-17T14:08:26.876Z,9.45
2018-08-17T14:10:55.975Z,6.17
2018-08-17T14:13:25.369Z,5.28
2018-08-17T14:15:54.639Z,5.28
2018-08-17T14:18:24.156Z,5.05
2018-08-17T14:20:53.236Z,5.10
2018-08-17T14:23:22.594Z,6.33
2018-08-17T14:25:51.968Z,6.92
2018-08-17T14:28:21.233Z,5.12
2018-08-17T14:30:50.403Z,4.85
2018-08-17T14:33:19.892Z,4.72
2018-08-17T14:35:49.305Z,5.33
2018-08-17T14:38:29.512Z,4.90
2018-08-17T14:40:58.716Z,5.28
2018-08-17T14:43:27.971Z,4.85
2018-08-17T14:45:57.232Z,5.65
2018-08-17T14:48:26.764Z,5.67
2018-08-17T14:50:55.979Z,5.53
2018-08-17T14:53:25.783Z,4.80
2018-08-17T14:55:54.872Z,4.78
2018-08-17T14:58:24.097Z,5.42
2018-08-17T15:00:53.644Z,4.90
2018-08-17T15:03:22.887Z,6.35
2018-08-17T15:05:52.103Z,7.30
2018-08-17T15:08:21.405Z,6.80
2018-08-17T15:10:50.682Z,5.85
2018-08-17T15:13:19.769Z,5.58
2018-08-17T15:15:48.977Z,5.53
2018-08-17T15:18:18.332Z,5.28
2018-08-17T15:20:47.680Z,7.97
2018-08-17T15:23:17.254Z,5.42
2018-08-17T15:25:46.494Z,5.08
2018-08-17T15:28:15.972Z,5.50
2018-08-17T15:30:45.435Z,5.53
2018-08-17T15:33:14.716Z,5.62
2018-08-17T15:35:44.069Z,5.17
2018-08-17T15:38:13.446Z,7.17
2018-08-17T15:40:43.277Z,6.75
2018-08-17T15:43:18.798Z,7.95
2018-08-17T15:45:48.985Z,6.53
2018-08-17T15:48:18.851Z,7.83
2018-08-17T15:50:48.598Z,6.58
2018-08-17T15:53:18.131Z,6.62
2018-08-17T15:55:50.216Z,5.10
2018-08-17T15:58:20.670Z,5.45
2018-08-17T16:00:50.650Z,5.58
2018-08-17T16:03:21.233Z,5.08
2018-08-17T16:05:51.029Z,4.97
2018-08-17T16:08:25.354Z,6.12
2018-08-17T16:10:57.564Z,10.70
2018-08-17T16:13:28.374Z,6.33
2018-08-17T16:15:57.907Z,6.33
2018-08-17T16:18:26.974Z,6.40
2018-08-17T16:20:56.238Z,7.20
2018-08-17T16:23:25.395Z,6.72
2018-08-17T16:25:54.748Z,6.83
2018-08-17T16:28:24.255Z,33.20
2018-08-17T16:30:53.599Z,25.27
2018-08-17T16:33:23.409Z,20.35
2018-08-17T16:35:52.816Z,11.40
2018-08-17T16:38:22.298Z,7.58
2018-08-17T16:40:53.353Z,10.55
2018-08-17T16:43:28.623Z,10.50
2018-08-17T16:45:57.849Z,9.35
2018-08-17T16:48:27.260Z,8.13
2018-08-17T16:50:56.417Z,9.70
2018-08-17T16:53:25.821Z,10.75
2018-08-17T16:55:55.044Z,7.30
2018-08-17T16:58:25.153Z,8.53
2018-08-17T17:00:54.272Z,7.53
2018-08-17T17:03:23.586Z,8.45
2018-08-17T17:06:02.126Z,9.13
2018-08-17T17:08:31.858Z,12.23
2018-08-17T17:11:02.218Z,12.98
2018-08-17T17:13:46.750Z,10.65
2018-08-17T17:16:17.304Z,11.75
2018-08-17T17:18:46.839Z,15.03
2018-08-17T17:21:16.029Z,14.60
2018-08-17T17:23:50.776Z,16.93
2018-08-17T17:26:19.806Z,18.98
2018-08-17T17:28:50.689Z,19.67
2018-08-17T17:31:19.641Z,18.62
2018-08-17T17:33:49.189Z,17.42
2018-08-17T17:36:18.439Z,20.17
2018-08-17T17:38:47.843Z,20.08
2018-08-17T17:41:17.015Z,20.70
2018-08-17T17:43:46.493Z,18.80
2018-08-17T17:46:15.873Z,19.92
2018-08-17T17:48:45.003Z,19.73
2018-08-17T17:51:14.275Z,18.82
2018-08-17T17:53:43.396Z,29.80
2018-08-17T17:56:12.651Z,22.70
2018-08-17T17:58:42.062Z,22.45
2018-08-17T18:01:11.392Z,28.73
2018-08-17T18:03:45.096Z,19.73
2018-08-17T18:06:14.083Z,17.05
2018-08-17T18:08:43.257Z,17.92
2018-08-17T18:11:12.487Z,19.90
2018-08-17T18:13:41.640Z,17.25
2018-08-17T18:16:10.783Z,15.08
2018-08-17T18:18:40.244Z,14.15
2018-08-17T18:21:09.840Z,18.15
2018-08-17T18:23:39.029Z,15.83
2018-08-17T18:26:16.169Z,15.43
2018-08-17T18:28:45.605Z,18.03
2018-08-17T18:31:14.933Z,14.20
2018-08-17T18:33:44.225Z,15.80
2018-08-17T18:36:13.592Z,17.87
2018-08-17T18:38:43.032Z,15.23
2018-08-17T18:41:12.401Z,17.27
2018-08-17T18:43:41.727Z,20.50
2018-08-17T18:46:11.123Z,22.40
2018-08-17T18:48:40.465Z,21.60
2018-08-17T18:51:09.825Z,21.40
2018-08-17T18:53:39.210Z,20.73
2018-08-17T18:56:08.400Z,21.33
2018-08-17T18:58:37.838Z,21.43
2018-08-17T19:01:06.974Z,21.07
2018-08-17T19:03:36.508Z,20.90
2018-08-17T19:06:05.580Z,24.67
2018-08-17T19:08:35.171Z,26.67
2018-08-17T19:11:04.453Z,28.20
2018-08-17T19:13:33.620Z,19.50
2018-08-17T19:16:02.862Z,21.73
2018-08-17T19:18:32.933Z,26.93
2018-08-17T19:21:05.738Z,22.27
2018-08-17T19:23:35.045Z,17.77
2018-08-17T19:26:04.368Z,15.63
2018-08-17T19:28:33.682Z,16.53
2018-08-17T19:31:03.133Z,17.20
2018-08-17T19:33:32.551Z,20.93
2018-08-17T19:36:03.872Z,16.87
2018-08-17T19:38:43.572Z,17.00
2018-08-17T19:41:13.072Z,15.80
2018-08-17T19:43:45.020Z,16.47
2018-08-17T19:46:14.419Z,18.07
2018-08-17T19:48:43.942Z,16.17
2018-08-17T19:51:17.269Z,17.63
2018-08-17T19:53:47.080Z,18.33
2018-08-17T19:56:16.857Z,17.50
2018-08-17T19:58:46.457Z,23.47
2018-08-17T20:01:15.764Z,23.87
2018-08-17T20:03:45.458Z,21.20
2018-08-17T20:06:14.933Z,17.00
2018-08-17T20:08:44.393Z,16.03
2018-08-17T20:11:13.635Z,20.00
2018-08-17T20:13:46.497Z,17.67
2018-08-17T20:16:26.238Z,16.33
2018-08-17T20:19:08.272Z,16.47
2018-08-17T20:21:45.399Z,16.20
2018-08-17T20:24:14.910Z,15.90
2018-08-17T20:26:44.411Z,17.37
2018-08-17T20:29:13.261Z,17.70
2018-08-17T20:31:43.950Z,18.93
2018-08-17T20:34:13.188Z,24.17
2018-08-17T20:36:42.633Z,26.37
2018-08-17T20:39:13.266Z,24.23
2018-08-17T20:41:42.505Z,23.90
2018-08-17T20:44:11.757Z,24.57
2018-08-17T20:46:40.936Z,25.67
2018-08-17T20:49:10.267Z,31.37
2018-08-17T20:51:45.542Z,28.97
2018-08-17T20:54:14.835Z,31.50
2018-08-17T20:56:44.314Z,21.20
2018-08-17T20:59:14.284Z,22.67
2018-08-17T21:01:45.023Z,20.30
2018-08-17T21:04:14.387Z,20.77
2018-08-17T21:06:43.499Z,21.33
2018-08-17T21:09:12.665Z,20.70
2018-08-17T21:11:42.082Z,20.37
2018-08-17T21:14:11.664Z,20.77
2018-08-17T21:16:40.969Z,19.03
2018-08-17T21:19:10.969Z,19.30
2018-08-17T21:21:40.731Z,18.87
2018-08-17T21:24:10.493Z,21.43
2018-08-17T21:26:39.811Z,15.97
2018-08-17T21:29:09.183Z,19.77
2018-08-17T21:31:38.515Z,18.00
2018-08-17T21:34:07.833Z,15.93
2018-08-17T21:36:37.244Z,19.60
2018-08-17T21:39:15.215Z,20.47
2018-08-17T21:41:45.468Z,21.00
2018-08-17T21:44:17.211Z,21.60
2018-08-17T21:47:05.402Z,21.60
2018-08-17T21:49:35.772Z,22.03
2018-08-17T21:52:07.499Z,22.00
2018-08-17T21:54:36.757Z,22.57
2018-08-17T21:57:05.870Z,25.60
2018-08-17T21:59:40.485Z,23.27
2018-08-17T22:02:10.988Z,21.03
2018-08-17T22:04:39.969Z,23.73
2018-08-17T22:07:13.580Z,26.20
2018-08-17T22:09:43.688Z,21.87
2018-08-17T22:12:13.412Z,26.73
2018-08-17T22:14:45.076Z,21.00
2018-08-17T22:17:25.378Z,22.13
2018-08-17T22:19:55.654Z,23.10
2018-08-17T22:22:24.812Z,23.50
2018-08-17T22:24:55.853Z,22.43
2018-08-17T22:30:03.406Z,21.77
2018-08-17T22:32:32.381Z,23.93
2018-08-17T22:35:02.551Z,22.97
2018-08-17T22:37:31.892Z,21.00
2018-08-17T22:40:01.527Z,24.57
2018-08-17T22:42:31.849Z,19.47
2018-08-17T22:45:01.952Z,18.17
2018-08-17T22:47:30.984Z,21.27
2018-08-17T22:50:01.267Z,18.00
2018-08-17T22:52:34.156Z,18.13
2018-08-17T22:55:05.217Z,16.50
2018-08-17T22:57:34.541Z,16.17
2018-08-17T23:00:29.867Z,15.00
2018-08-17T23:03:00.305Z,14.83
2018-08-17T23:05:30.968Z,15.93
2018-08-17T23:07:59.952Z,15.50
2018-08-17T23:10:29.588Z,13.90
2018-08-17T23:12:59.270Z,17.23
2018-08-17T23:15:28.311Z,18.43
2018-08-17T23:18:01.888Z,14.67
2018-08-17T23:20:34.544Z,13.90
2018-08-17T23:23:04.831Z,12.70
2018-08-17T23:25:34.076Z,14.90
2018-08-17T23:28:03.455Z,14.13
2018-08-17T23:30:32.732Z,14.43
2018-08-17T23:33:02.003Z,13.70
2018-08-17T23:35:31.195Z,14.77
2018-08-17T23:38:00.433Z,14.53
2018-08-17T23:40:29.850Z,15.13
2018-08-17T23:42:58.941Z,13.87
2018-08-17T23:45:28.493Z,15.33
2018-08-17T23:47:57.940Z,15.67
2018-08-17T23:50:27.199Z,13.83
2018-08-17T23:52:56.391Z,13.63
2018-08-17T23:55:25.613Z,12.20
2018-08-17T23:57:54.749Z,13.40
